sensor_id;sensor_type;location;lat;lon;timestamp;P1;durP1;ratioP1;P2;durP2;ratioP2
75584;SDS011;64162;53.508;10.476;2024-03-23T00:55:40;10.73;;;3.28;;
75584;SDS011;64162;53.508;10.476;2024-03-23T00:58:06;21.10;;;3.40;;
75584;SDS011;64162;53.508;10.476;2024-03-23T01:00:32;12.32;;;3.00;;
75584;SDS011;64162;53.508;10.476;2024-03-23T01:02:58;16.50;;;3.05;;
75584;SDS011;64162;53.508;10.476;2024-03-23T01:05:24;9.23;;;3.70;;
75584;SDS011;64162;53.508;10.476;2024-03-23T01:07:49;14.77;;;3.30;;
75584;SDS011;64162;53.508;10.476;2024-03-23T01:10:15;15.88;;;2.80;;
75584;SDS011;64162;53.508;10.476;2024-03-23T01:12:41;16.60;;;3.97;;
75584;SDS011;64162;53.508;10.476;2024-03-23T01:15:06;13.52;;;2.95;;
75584;SDS011;64162;53.508;10.476;2024-03-23T01:17:32;13.05;;;2.65;;
75584;SDS011;64162;53.508;10.476;2024-03-23T01:19:58;12.30;;;2.53;;
75584;SDS011;64162;53.508;10.476;2024-03-23T01:22:23;16.75;;;3.15;;
75584;SDS011;64162;53.508;10.476;2024-03-23T01:24:49;12.40;;;2.72;;
75584;SDS011;64162;53.508;10.476;2024-03-23T01:27:14;11.55;;;3.38;;
75584;SDS011;64162;53.508;10.476;2024-03-23T01:29:40;16.58;;;3.15;;
75584;SDS011;64162;53.508;10.476;2024-03-23T01:32:05;11.90;;;3.15;;
75584;SDS011;64162;53.508;10.476;2024-03-23T01:34:32;11.73;;;3.03;;
75584;SDS011;64162;53.508;10.476;2024-03-23T01:36:58;11.38;;;2.78;;
75584;SDS011;64162;53.508;10.476;2024-03-23T01:39:24;12.68;;;2.60;;
75584;SDS011;64162;53.508;10.476;2024-03-23T01:41:50;17.77;;;2.53;;
75584;SDS011;64162;53.508;10.476;2024-03-23T01:44:16;12.85;;;2.80;;
75584;SDS011;64162;53.508;10.476;2024-03-23T01:46:43;16.85;;;3.13;;
75584;SDS011;64162;53.508;10.476;2024-03-23T01:49:09;17.05;;;2.45;;
75584;SDS011;64162;53.508;10.476;2024-03-23T01:51:35;10.32;;;2.33;;
75584;SDS011;64162;53.508;10.476;2024-03-23T01:54:02;13.85;;;2.67;;
75584;SDS011;64162;53.508;10.476;2024-03-23T01:56:31;15.25;;;3.33;;
75584;SDS011;64162;53.508;10.476;2024-03-23T01:59:01;12.68;;;3.20;;
75584;SDS011;64162;53.508;10.476;2024-03-23T02:01:27;9.85;;;2.42;;
75584;SDS011;64162;53.508;10.476;2024-03-23T02:03:53;16.48;;;2.85;;
75584;SDS011;64162;53.508;10.476;2024-03-23T02:06:18;9.18;;;2.65;;
75584;SDS011;64162;53.508;10.476;2024-03-23T02:08:44;14.80;;;3.05;;
75584;SDS011;64162;53.508;10.476;2024-03-23T02:11:10;12.07;;;2.40;;
75584;SDS011;64162;53.508;10.476;2024-03-23T02:13:35;19.00;;;3.22;;
75584;SDS011;64162;53.508;10.476;2024-03-23T02:16:01;11.73;;;2.72;;
75584;SDS011;64162;53.508;10.476;2024-03-23T02:18:27;15.80;;;3.08;;
75584;SDS011;64162;53.508;10.476;2024-03-23T02:20:52;18.77;;;3.55;;
75584;SDS011;64162;53.508;10.476;2024-03-23T02:23:18;8.65;;;2.90;;
75584;SDS011;64162;53.508;10.476;2024-03-23T02:25:44;14.77;;;2.75;;
75584;SDS011;64162;53.508;10.476;2024-03-23T02:28:10;11.13;;;2.47;;
75584;SDS011;64162;53.508;10.476;2024-03-23T02:30:36;8.70;;;2.40;;
75584;SDS011;64162;53.508;10.476;2024-03-23T02:33:02;16.05;;;3.50;;
75584;SDS011;64162;53.508;10.476;2024-03-23T02:35:28;13.80;;;2.38;;
75584;SDS011;64162;53.508;10.476;2024-03-23T02:37:53;11.68;;;2.83;;
75584;SDS011;64162;53.508;10.476;2024-03-23T02:40:22;15.40;;;3.33;;
75584;SDS011;64162;53.508;10.476;2024-03-23T02:42:48;17.35;;;2.63;;
75584;SDS011;64162;53.508;10.476;2024-03-23T02:45:14;15.68;;;2.90;;
75584;SDS011;64162;53.508;10.476;2024-03-23T02:47:39;11.63;;;3.10;;
75584;SDS011;64162;53.508;10.476;2024-03-23T02:50:05;12.25;;;2.55;;
75584;SDS011;64162;53.508;10.476;2024-03-23T02:52:31;13.70;;;2.67;;
75584;SDS011;64162;53.508;10.476;2024-03-23T02:54:57;16.50;;;2.83;;
75584;SDS011;64162;53.508;10.476;2024-03-23T02:57:23;14.27;;;3.30;;
75584;SDS011;64162;53.508;10.476;2024-03-23T02:59:48;17.23;;;3.30;;
75584;SDS011;64162;53.508;10.476;2024-03-23T03:02:15;9.98;;;3.17;;
75584;SDS011;64162;53.508;10.476;2024-03-23T03:04:41;12.20;;;2.65;;
75584;SDS011;64162;53.508;10.476;2024-03-23T03:07:07;12.77;;;2.67;;
75584;SDS011;64162;53.508;10.476;2024-03-23T03:09:32;14.73;;;2.85;;
75584;SDS011;64162;53.508;10.476;2024-03-23T03:12:00;14.45;;;3.17;;
75584;SDS011;64162;53.508;10.476;2024-03-23T03:14:29;13.25;;;2.50;;
75584;SDS011;64162;53.508;10.476;2024-03-23T03:16:54;18.27;;;2.83;;
75584;SDS011;64162;53.508;10.476;2024-03-23T03:19:20;11.75;;;2.55;;
75584;SDS011;64162;53.508;10.476;2024-03-23T03:21:46;15.60;;;3.10;;
75584;SDS011;64162;53.508;10.476;2024-03-23T03:24:13;12.13;;;2.78;;
75584;SDS011;64162;53.508;10.476;2024-03-23T03:26:38;11.25;;;3.10;;
75584;SDS011;64162;53.508;10.476;2024-03-23T03:29:04;18.95;;;3.00;;
75584;SDS011;64162;53.508;10.476;2024-03-23T03:31:30;12.65;;;2.70;;
75584;SDS011;64162;53.508;10.476;2024-03-23T03:33:55;17.35;;;2.80;;
75584;SDS011;64162;53.508;10.476;2024-03-23T03:36:21;13.70;;;3.13;;
75584;SDS011;64162;53.508;10.476;2024-03-23T03:38:46;13.13;;;2.83;;
75584;SDS011;64162;53.508;10.476;2024-03-23T03:41:12;13.57;;;3.00;;
75584;SDS011;64162;53.508;10.476;2024-03-23T03:43:37;15.23;;;2.92;;
75584;SDS011;64162;53.508;10.476;2024-03-23T03:46:03;13.43;;;3.25;;
75584;SDS011;64162;53.508;10.476;2024-03-23T03:48:29;13.55;;;3.05;;
75584;SDS011;64162;53.508;10.476;2024-03-23T03:50:55;12.80;;;2.65;;
75584;SDS011;64162;53.508;10.476;2024-03-23T03:53:20;18.40;;;3.65;;
75584;SDS011;64162;53.508;10.476;2024-03-23T03:55:46;11.88;;;2.47;;
75584;SDS011;64162;53.508;10.476;2024-03-23T03:58:12;11.38;;;2.47;;
75584;SDS011;64162;53.508;10.476;2024-03-23T04:00:37;11.23;;;2.40;;
75584;SDS011;64162;53.508;10.476;2024-03-23T04:03:03;15.98;;;2.83;;
75584;SDS011;64162;53.508;10.476;2024-03-23T04:05:29;11.23;;;2.67;;
75584;SDS011;64162;53.508;10.476;2024-03-23T04:07:54;10.77;;;2.90;;
75584;SDS011;64162;53.508;10.476;2024-03-23T04:10:20;15.30;;;3.08;;
75584;SDS011;64162;53.508;10.476;2024-03-23T04:12:46;15.00;;;2.83;;
75584;SDS011;64162;53.508;10.476;2024-03-23T04:15:12;10.63;;;2.70;;
75584;SDS011;64162;53.508;10.476;2024-03-23T04:17:38;12.45;;;3.13;;
75584;SDS011;64162;53.508;10.476;2024-03-23T04:20:04;8.10;;;3.15;;
75584;SDS011;64162;53.508;10.476;2024-03-23T04:22:39;11.70;;;3.38;;
75584;SDS011;64162;53.508;10.476;2024-03-23T04:25:05;16.00;;;3.25;;
75584;SDS011;64162;53.508;10.476;2024-03-23T04:27:36;11.10;;;2.83;;
75584;SDS011;64162;53.508;10.476;2024-03-23T04:32:29;18.33;;;3.97;;
75584;SDS011;64162;53.508;10.476;2024-03-23T04:34:55;17.35;;;4.60;;
75584;SDS011;64162;53.508;10.476;2024-03-23T04:37:21;15.35;;;3.63;;
75584;SDS011;64162;53.508;10.476;2024-03-23T04:39:47;13.55;;;3.45;;
75584;SDS011;64162;53.508;10.476;2024-03-23T04:42:16;12.75;;;2.97;;
75584;SDS011;64162;53.508;10.476;2024-03-23T04:44:42;14.65;;;3.00;;
75584;SDS011;64162;53.508;10.476;2024-03-23T04:47:08;16.15;;;3.80;;
75584;SDS011;64162;53.508;10.476;2024-03-23T04:49:37;14.18;;;3.13;;
75584;SDS011;64162;53.508;10.476;2024-03-23T04:52:04;13.13;;;3.03;;
75584;SDS011;64162;53.508;10.476;2024-03-23T04:54:30;11.73;;;2.83;;
75584;SDS011;64162;53.508;10.476;2024-03-23T04:56:57;10.65;;;3.17;;
75584;SDS011;64162;53.508;10.476;2024-03-23T04:59:23;16.40;;;2.88;;
75584;SDS011;64162;53.508;10.476;2024-03-23T05:01:49;15.55;;;2.60;;
75584;SDS011;64162;53.508;10.476;2024-03-23T05:04:15;10.23;;;2.38;;
75584;SDS011;64162;53.508;10.476;2024-03-23T05:06:41;15.90;;;3.42;;
75584;SDS011;64162;53.508;10.476;2024-03-23T05:09:06;16.83;;;3.08;;
75584;SDS011;64162;53.508;10.476;2024-03-23T05:11:33;12.45;;;2.25;;
75584;SDS011;64162;53.508;10.476;2024-03-23T05:13:59;19.27;;;3.38;;
75584;SDS011;64162;53.508;10.476;2024-03-23T05:16:25;16.10;;;3.35;;
75584;SDS011;64162;53.508;10.476;2024-03-23T05:21:17;10.68;;;2.80;;
75584;SDS011;64162;53.508;10.476;2024-03-23T05:23:42;14.23;;;2.80;;
75584;SDS011;64162;53.508;10.476;2024-03-23T05:26:08;14.55;;;2.53;;
75584;SDS011;64162;53.508;10.476;2024-03-23T05:28:35;15.80;;;3.40;;
75584;SDS011;64162;53.508;10.476;2024-03-23T05:31:00;12.93;;;2.83;;
75584;SDS011;64162;53.508;10.476;2024-03-23T05:33:26;16.77;;;2.53;;
75584;SDS011;64162;53.508;10.476;2024-03-23T05:35:58;16.13;;;3.08;;
75584;SDS011;64162;53.508;10.476;2024-03-23T05:38:25;12.90;;;2.55;;
75584;SDS011;64162;53.508;10.476;2024-03-23T05:40:58;17.73;;;3.00;;
75584;SDS011;64162;53.508;10.476;2024-03-23T05:43:25;15.40;;;2.80;;
75584;SDS011;64162;53.508;10.476;2024-03-23T05:48:20;14.73;;;2.90;;
75584;SDS011;64162;53.508;10.476;2024-03-23T05:50:45;16.30;;;3.15;;
75584;SDS011;64162;53.508;10.476;2024-03-23T05:53:11;17.08;;;3.88;;
75584;SDS011;64162;53.508;10.476;2024-03-23T05:55:38;14.25;;;3.42;;
75584;SDS011;64162;53.508;10.476;2024-03-23T05:58:03;16.05;;;4.07;;
75584;SDS011;64162;53.508;10.476;2024-03-23T06:00:29;12.07;;;3.13;;
75584;SDS011;64162;53.508;10.476;2024-03-23T06:02:55;15.40;;;3.35;;
75584;SDS011;64162;53.508;10.476;2024-03-23T06:05:20;15.02;;;3.15;;
75584;SDS011;64162;53.508;10.476;2024-03-23T06:07:46;11.07;;;2.60;;
75584;SDS011;64162;53.508;10.476;2024-03-23T06:10:11;9.63;;;2.92;;
75584;SDS011;64162;53.508;10.476;2024-03-23T06:12:37;14.73;;;3.50;;
75584;SDS011;64162;53.508;10.476;2024-03-23T06:15:02;12.18;;;2.60;;
75584;SDS011;64162;53.508;10.476;2024-03-23T06:17:28;18.92;;;3.92;;
75584;SDS011;64162;53.508;10.476;2024-03-23T06:19:54;15.85;;;3.50;;
75584;SDS011;64162;53.508;10.476;2024-03-23T06:22:19;7.75;;;2.28;;
75584;SDS011;64162;53.508;10.476;2024-03-23T06:24:45;15.68;;;2.83;;
75584;SDS011;64162;53.508;10.476;2024-03-23T06:27:11;11.13;;;2.53;;
75584;SDS011;64162;53.508;10.476;2024-03-23T06:29:37;15.95;;;2.80;;
75584;SDS011;64162;53.508;10.476;2024-03-23T06:32:02;14.40;;;3.13;;
75584;SDS011;64162;53.508;10.476;2024-03-23T06:34:28;12.93;;;3.70;;
75584;SDS011;64162;53.508;10.476;2024-03-23T06:36:54;18.58;;;3.20;;
75584;SDS011;64162;53.508;10.476;2024-03-23T06:39:20;10.70;;;2.22;;
75584;SDS011;64162;53.508;10.476;2024-03-23T06:41:51;10.45;;;2.35;;
75584;SDS011;64162;53.508;10.476;2024-03-23T06:44:17;12.57;;;2.58;;
75584;SDS011;64162;53.508;10.476;2024-03-23T06:46:43;7.70;;;2.03;;
75584;SDS011;64162;53.508;10.476;2024-03-23T06:49:09;14.15;;;2.58;;
75584;SDS011;64162;53.508;10.476;2024-03-23T06:51:35;15.23;;;3.30;;
75584;SDS011;64162;53.508;10.476;2024-03-23T06:54:02;13.35;;;2.55;;
75584;SDS011;64162;53.508;10.476;2024-03-23T06:56:30;10.05;;;2.70;;
75584;SDS011;64162;53.508;10.476;2024-03-23T06:58:56;10.55;;;2.20;;
75584;SDS011;64162;53.508;10.476;2024-03-23T07:01:22;8.40;;;2.15;;
75584;SDS011;64162;53.508;10.476;2024-03-23T07:03:48;7.60;;;2.22;;
75584;SDS011;64162;53.508;10.476;2024-03-23T07:06:13;11.75;;;2.75;;
75584;SDS011;64162;53.508;10.476;2024-03-23T07:08:39;16.45;;;3.40;;
75584;SDS011;64162;53.508;10.476;2024-03-23T07:11:05;14.80;;;3.10;;
75584;SDS011;64162;53.508;10.476;2024-03-23T07:13:30;16.90;;;2.90;;
75584;SDS011;64162;53.508;10.476;2024-03-23T07:15:56;12.82;;;3.05;;
75584;SDS011;64162;53.508;10.476;2024-03-23T07:18:23;14.10;;;2.75;;
75584;SDS011;64162;53.508;10.476;2024-03-23T07:20:55;11.77;;;2.63;;
75584;SDS011;64162;53.508;10.476;2024-03-23T07:23:22;15.48;;;3.00;;
75584;SDS011;64162;53.508;10.476;2024-03-23T07:26:01;9.23;;;3.00;;
75584;SDS011;64162;53.508;10.476;2024-03-23T07:28:28;17.85;;;2.88;;
75584;SDS011;64162;53.508;10.476;2024-03-23T07:31:10;10.20;;;2.55;;
75584;SDS011;64162;53.508;10.476;2024-03-23T07:33:42;8.52;;;2.50;;
75584;SDS011;64162;53.508;10.476;2024-03-23T07:36:09;14.10;;;2.65;;
75584;SDS011;64162;53.508;10.476;2024-03-23T07:38:34;13.68;;;3.00;;
75584;SDS011;64162;53.508;10.476;2024-03-23T07:41:07;17.08;;;3.08;;
75584;SDS011;64162;53.508;10.476;2024-03-23T07:43:34;14.75;;;2.90;;
75584;SDS011;64162;53.508;10.476;2024-03-23T07:46:01;10.45;;;2.15;;
75584;SDS011;64162;53.508;10.476;2024-03-23T07:48:28;16.90;;;3.42;;
75584;SDS011;64162;53.508;10.476;2024-03-23T07:53:32;11.77;;;2.45;;
75584;SDS011;64162;53.508;10.476;2024-03-23T07:56:06;11.15;;;3.05;;
75584;SDS011;64162;53.508;10.476;2024-03-23T07:58:33;16.55;;;2.67;;
75584;SDS011;64162;53.508;10.476;2024-03-23T08:01:09;9.32;;;2.35;;
75584;SDS011;64162;53.508;10.476;2024-03-23T08:03:36;10.20;;;2.20;;
75584;SDS011;64162;53.508;10.476;2024-03-23T08:06:09;17.55;;;3.42;;
75584;SDS011;64162;53.508;10.476;2024-03-23T08:08:39;13.82;;;3.38;;
75584;SDS011;64162;53.508;10.476;2024-03-23T08:11:06;12.13;;;3.00;;
75584;SDS011;64162;53.508;10.476;2024-03-23T08:16:02;16.20;;;2.80;;
75584;SDS011;64162;53.508;10.476;2024-03-23T08:18:28;13.95;;;2.97;;
75584;SDS011;64162;53.508;10.476;2024-03-23T08:20:55;11.27;;;3.00;;
75584;SDS011;64162;53.508;10.476;2024-03-23T08:23:23;21.17;;;3.35;;
75584;SDS011;64162;53.508;10.476;2024-03-23T08:25:57;9.27;;;2.80;;
75584;SDS011;64162;53.508;10.476;2024-03-23T08:28:23;13.00;;;3.05;;
75584;SDS011;64162;53.508;10.476;2024-03-23T08:30:49;10.38;;;3.03;;
75584;SDS011;64162;53.508;10.476;2024-03-23T08:33:15;13.38;;;2.88;;
75584;SDS011;64162;53.508;10.476;2024-03-23T08:35:41;16.23;;;2.58;;
75584;SDS011;64162;53.508;10.476;2024-03-23T08:38:07;15.05;;;2.65;;
75584;SDS011;64162;53.508;10.476;2024-03-23T08:40:33;13.20;;;3.35;;
75584;SDS011;64162;53.508;10.476;2024-03-23T08:42:58;7.82;;;2.45;;
75584;SDS011;64162;53.508;10.476;2024-03-23T08:45:24;12.32;;;3.53;;
75584;SDS011;64162;53.508;10.476;2024-03-23T08:50:16;7.75;;;2.20;;
75584;SDS011;64162;53.508;10.476;2024-03-23T08:52:42;13.70;;;3.25;;
75584;SDS011;64162;53.508;10.476;2024-03-23T08:55:08;10.23;;;2.60;;
75584;SDS011;64162;53.508;10.476;2024-03-23T08:57:35;6.22;;;1.48;;
75584;SDS011;64162;53.508;10.476;2024-03-23T09:00:01;6.05;;;1.77;;
75584;SDS011;64162;53.508;10.476;2024-03-23T09:02:26;10.35;;;2.55;;
75584;SDS011;64162;53.508;10.476;2024-03-23T09:04:52;7.50;;;2.35;;
75584;SDS011;64162;53.508;10.476;2024-03-23T09:07:17;8.90;;;2.53;;
75584;SDS011;64162;53.508;10.476;2024-03-23T09:09:43;13.98;;;2.65;;
75584;SDS011;64162;53.508;10.476;2024-03-23T09:12:09;11.88;;;2.30;;
75584;SDS011;64162;53.508;10.476;2024-03-23T09:14:35;13.75;;;2.50;;
75584;SDS011;64162;53.508;10.476;2024-03-23T09:17:00;9.13;;;2.42;;
75584;SDS011;64162;53.508;10.476;2024-03-23T09:19:29;4.85;;;1.92;;
75584;SDS011;64162;53.508;10.476;2024-03-23T09:21:55;8.55;;;2.50;;
75584;SDS011;64162;53.508;10.476;2024-03-23T09:24:21;9.50;;;2.67;;
75584;SDS011;64162;53.508;10.476;2024-03-23T09:26:47;8.32;;;2.75;;
75584;SDS011;64162;53.508;10.476;2024-03-23T09:29:12;7.63;;;2.17;;
75584;SDS011;64162;53.508;10.476;2024-03-23T09:31:39;9.98;;;2.38;;
75584;SDS011;64162;53.508;10.476;2024-03-23T09:34:06;12.07;;;2.60;;
75584;SDS011;64162;53.508;10.476;2024-03-23T09:36:31;6.35;;;2.17;;
75584;SDS011;64162;53.508;10.476;2024-03-23T09:38:57;5.75;;;2.03;;
75584;SDS011;64162;53.508;10.476;2024-03-23T09:41:22;9.73;;;2.17;;
75584;SDS011;64162;53.508;10.476;2024-03-23T09:43:48;13.52;;;2.35;;
75584;SDS011;64162;53.508;10.476;2024-03-23T09:46:18;7.10;;;2.08;;
75584;SDS011;64162;53.508;10.476;2024-03-23T09:48:43;6.38;;;1.83;;
75584;SDS011;64162;53.508;10.476;2024-03-23T09:51:11;4.93;;;1.90;;
75584;SDS011;64162;53.508;10.476;2024-03-23T09:53:37;6.70;;;2.60;;
75584;SDS011;64162;53.508;10.476;2024-03-23T09:58:29;7.53;;;2.33;;
75584;SDS011;64162;53.508;10.476;2024-03-23T10:00:55;5.93;;;1.63;;
75584;SDS011;64162;53.508;10.476;2024-03-23T10:03:20;7.55;;;2.08;;
75584;SDS011;64162;53.508;10.476;2024-03-23T10:05:46;6.10;;;2.20;;
75584;SDS011;64162;53.508;10.476;2024-03-23T10:10:40;10.90;;;2.63;;
75584;SDS011;64162;53.508;10.476;2024-03-23T10:13:10;6.38;;;1.80;;
75584;SDS011;64162;53.508;10.476;2024-03-23T10:15:38;9.50;;;1.90;;
75584;SDS011;64162;53.508;10.476;2024-03-23T10:18:22;5.65;;;1.58;;
75584;SDS011;64162;53.508;10.476;2024-03-23T10:23:30;4.93;;;1.63;;
75584;SDS011;64162;53.508;10.476;2024-03-23T10:26:11;5.10;;;1.60;;
75584;SDS011;64162;53.508;10.476;2024-03-23T10:28:39;3.85;;;1.38;;
75584;SDS011;64162;53.508;10.476;2024-03-23T10:31:16;4.20;;;1.90;;
75584;SDS011;64162;53.508;10.476;2024-03-23T10:33:48;3.88;;;1.52;;
75584;SDS011;64162;53.508;10.476;2024-03-23T10:36:15;8.60;;;1.92;;
75584;SDS011;64162;53.508;10.476;2024-03-23T10:38:41;1.55;;;1.08;;
75584;SDS011;64162;53.508;10.476;2024-03-23T10:41:11;7.13;;;2.00;;
75584;SDS011;64162;53.508;10.476;2024-03-23T10:43:37;2.67;;;1.42;;
75584;SDS011;64162;53.508;10.476;2024-03-23T10:46:03;5.05;;;1.52;;
75584;SDS011;64162;53.508;10.476;2024-03-23T10:50:55;7.22;;;1.65;;
75584;SDS011;64162;53.508;10.476;2024-03-23T10:53:28;7.20;;;1.35;;
75584;SDS011;64162;53.508;10.476;2024-03-23T10:58:21;5.78;;;1.60;;
75584;SDS011;64162;53.508;10.476;2024-03-23T11:00:52;4.53;;;1.23;;
75584;SDS011;64162;53.508;10.476;2024-03-23T11:03:32;8.43;;;1.70;;
75584;SDS011;64162;53.508;10.476;2024-03-23T11:05:59;4.57;;;1.55;;
75584;SDS011;64162;53.508;10.476;2024-03-23T11:08:33;2.92;;;1.30;;
75584;SDS011;64162;53.508;10.476;2024-03-23T11:11:19;5.75;;;1.75;;
75584;SDS011;64162;53.508;10.476;2024-03-23T11:13:50;4.03;;;2.10;;
75584;SDS011;64162;53.508;10.476;2024-03-23T11:16:27;9.52;;;1.50;;
75584;SDS011;64162;53.508;10.476;2024-03-23T11:22:05;7.40;;;2.28;;
75584;SDS011;64162;53.508;10.476;2024-03-23T11:24:31;4.32;;;1.13;;
75584;SDS011;64162;53.508;10.476;2024-03-23T11:26:57;6.15;;;1.70;;
75584;SDS011;64162;53.508;10.476;2024-03-23T11:29:26;4.10;;;1.55;;
75584;SDS011;64162;53.508;10.476;2024-03-23T11:31:52;6.47;;;1.40;;
75584;SDS011;64162;53.508;10.476;2024-03-23T11:34:19;5.60;;;1.80;;
75584;SDS011;64162;53.508;10.476;2024-03-23T11:36:45;1.20;;;1.10;;
75584;SDS011;64162;53.508;10.476;2024-03-23T11:39:16;4.28;;;1.45;;
75584;SDS011;64162;53.508;10.476;2024-03-23T11:41:49;3.40;;;1.40;;
75584;SDS011;64162;53.508;10.476;2024-03-23T11:46:42;6.97;;;1.98;;
75584;SDS011;64162;53.508;10.476;2024-03-23T11:49:19;4.30;;;1.70;;
75584;SDS011;64162;53.508;10.476;2024-03-23T11:51:52;3.65;;;1.63;;
75584;SDS011;64162;53.508;10.476;2024-03-23T11:54:26;3.42;;;1.55;;
75584;SDS011;64162;53.508;10.476;2024-03-23T11:57:02;3.70;;;1.52;;
75584;SDS011;64162;53.508;10.476;2024-03-23T11:59:36;8.10;;;1.52;;
75584;SDS011;64162;53.508;10.476;2024-03-23T12:02:07;2.05;;;0.82;;
75584;SDS011;64162;53.508;10.476;2024-03-23T12:04:40;4.90;;;1.40;;
75584;SDS011;64162;53.508;10.476;2024-03-23T12:12:14;1.85;;;1.02;;
75584;SDS011;64162;53.508;10.476;2024-03-23T12:19:36;4.28;;;1.20;;
75584;SDS011;64162;53.508;10.476;2024-03-23T12:22:05;3.17;;;0.90;;
75584;SDS011;64162;53.508;10.476;2024-03-23T12:24:32;4.50;;;1.60;;
75584;SDS011;64162;53.508;10.476;2024-03-23T12:27:03;4.32;;;1.05;;
75584;SDS011;64162;53.508;10.476;2024-03-23T12:29:30;2.95;;;1.15;;
75584;SDS011;64162;53.508;10.476;2024-03-23T12:32:00;2.97;;;1.05;;
75584;SDS011;64162;53.508;10.476;2024-03-23T12:34:27;2.60;;;1.13;;
75584;SDS011;64162;53.508;10.476;2024-03-23T12:36:53;2.15;;;1.02;;
75584;SDS011;64162;53.508;10.476;2024-03-23T12:39:19;2.72;;;1.13;;
75584;SDS011;64162;53.508;10.476;2024-03-23T12:41:48;3.00;;;1.35;;
75584;SDS011;64162;53.508;10.476;2024-03-23T12:46:41;4.30;;;0.80;;
75584;SDS011;64162;53.508;10.476;2024-03-23T12:49:07;2.47;;;1.00;;
75584;SDS011;64162;53.508;10.476;2024-03-23T12:51:33;1.58;;;0.77;;
75584;SDS011;64162;53.508;10.476;2024-03-23T12:53:59;1.17;;;0.57;;
75584;SDS011;64162;53.508;10.476;2024-03-23T12:56:25;2.30;;;1.10;;
75584;SDS011;64162;53.508;10.476;2024-03-23T12:58:50;0.82;;;0.82;;
75584;SDS011;64162;53.508;10.476;2024-03-23T13:01:20;3.72;;;1.40;;
75584;SDS011;64162;53.508;10.476;2024-03-23T13:03:49;1.17;;;0.52;;
75584;SDS011;64162;53.508;10.476;2024-03-23T13:06:16;2.47;;;0.90;;
75584;SDS011;64162;53.508;10.476;2024-03-23T13:08:43;1.58;;;0.90;;
75584;SDS011;64162;53.508;10.476;2024-03-23T13:11:10;6.55;;;1.40;;
75584;SDS011;64162;53.508;10.476;2024-03-23T13:13:36;1.60;;;0.90;;
75584;SDS011;64162;53.508;10.476;2024-03-23T13:16:02;1.55;;;1.10;;
75584;SDS011;64162;53.508;10.476;2024-03-23T13:18:29;3.47;;;1.02;;
75584;SDS011;64162;53.508;10.476;2024-03-23T13:20:55;1.45;;;1.35;;
75584;SDS011;64162;53.508;10.476;2024-03-23T13:23:21;2.03;;;1.30;;
75584;SDS011;64162;53.508;10.476;2024-03-23T13:25:50;0.63;;;0.22;;
75584;SDS011;64162;53.508;10.476;2024-03-23T13:28:18;1.88;;;0.90;;
75584;SDS011;64162;53.508;10.476;2024-03-23T13:33:20;0.80;;;0.60;;
75584;SDS011;64162;53.508;10.476;2024-03-23T13:35:50;1.17;;;0.60;;
75584;SDS011;64162;53.508;10.476;2024-03-23T13:38:15;1.38;;;0.63;;
75584;SDS011;64162;53.508;10.476;2024-03-23T13:40:49;3.13;;;0.73;;
75584;SDS011;64162;53.508;10.476;2024-03-23T13:43:24;4.22;;;1.23;;
75584;SDS011;64162;53.508;10.476;2024-03-23T13:45:54;1.60;;;1.00;;
75584;SDS011;64162;53.508;10.476;2024-03-23T13:48:25;1.80;;;1.02;;
75584;SDS011;64162;53.508;10.476;2024-03-23T13:50:59;1.70;;;0.75;;
75584;SDS011;64162;53.508;10.476;2024-03-23T13:53:28;3.80;;;1.08;;
75584;SDS011;64162;53.508;10.476;2024-03-23T13:55:55;1.05;;;0.43;;
75584;SDS011;64162;53.508;10.476;2024-03-23T13:58:20;1.90;;;0.95;;
75584;SDS011;64162;53.508;10.476;2024-03-23T14:00:46;6.60;;;1.10;;
75584;SDS011;64162;53.508;10.476;2024-03-23T14:03:12;2.15;;;1.27;;
75584;SDS011;64162;53.508;10.476;2024-03-23T14:05:39;1.77;;;0.88;;
75584;SDS011;64162;53.508;10.476;2024-03-23T14:08:08;4.00;;;1.15;;
75584;SDS011;64162;53.508;10.476;2024-03-23T14:10:35;2.85;;;1.30;;
75584;SDS011;64162;53.508;10.476;2024-03-23T14:13:03;1.70;;;1.05;;
75584;SDS011;64162;53.508;10.476;2024-03-23T14:15:29;2.15;;;0.68;;
75584;SDS011;64162;53.508;10.476;2024-03-23T14:17:58;1.63;;;0.93;;
75584;SDS011;64162;53.508;10.476;2024-03-23T14:20:25;3.30;;;0.85;;
75584;SDS011;64162;53.508;10.476;2024-03-23T14:22:51;0.45;;;0.45;;
75584;SDS011;64162;53.508;10.476;2024-03-23T14:27:44;1.02;;;0.90;;
75584;SDS011;64162;53.508;10.476;2024-03-23T14:30:10;1.52;;;0.90;;
75584;SDS011;64162;53.508;10.476;2024-03-23T14:32:37;1.20;;;1.10;;
75584;SDS011;64162;53.508;10.476;2024-03-23T14:35:03;1.10;;;0.63;;
75584;SDS011;64162;53.508;10.476;2024-03-23T14:37:30;1.23;;;0.85;;
75584;SDS011;64162;53.508;10.476;2024-03-23T14:42:22;8.15;;;1.20;;
75584;SDS011;64162;53.508;10.476;2024-03-23T14:47:15;0.60;;;0.60;;
75584;SDS011;64162;53.508;10.476;2024-03-23T14:49:41;0.80;;;0.63;;
75584;SDS011;64162;53.508;10.476;2024-03-23T14:52:06;1.08;;;0.80;;
75584;SDS011;64162;53.508;10.476;2024-03-23T14:54:34;1.45;;;0.75;;
75584;SDS011;64162;53.508;10.476;2024-03-23T14:57:00;4.38;;;1.25;;
75584;SDS011;64162;53.508;10.476;2024-03-23T14:59:26;2.97;;;1.10;;
75584;SDS011;64162;53.508;10.476;2024-03-23T15:01:51;1.35;;;1.05;;
75584;SDS011;64162;53.508;10.476;2024-03-23T15:04:17;2.05;;;1.27;;
75584;SDS011;64162;53.508;10.476;2024-03-23T15:06:43;5.45;;;1.50;;
75584;SDS011;64162;53.508;10.476;2024-03-23T15:09:11;2.35;;;0.60;;
75584;SDS011;64162;53.508;10.476;2024-03-23T15:11:37;3.80;;;1.33;;
75584;SDS011;64162;53.508;10.476;2024-03-23T15:14:02;2.13;;;1.38;;
75584;SDS011;64162;53.508;10.476;2024-03-23T15:16:28;2.10;;;1.20;;
75584;SDS011;64162;53.508;10.476;2024-03-23T15:18:54;1.98;;;1.25;;
75584;SDS011;64162;53.508;10.476;2024-03-23T15:21:19;4.68;;;1.35;;
75584;SDS011;64162;53.508;10.476;2024-03-23T15:23:46;3.58;;;1.60;;
75584;SDS011;64162;53.508;10.476;2024-03-23T15:28:38;3.03;;;1.65;;
75584;SDS011;64162;53.508;10.476;2024-03-23T15:31:27;2.28;;;1.40;;
75584;SDS011;64162;53.508;10.476;2024-03-23T15:33:54;3.38;;;1.33;;
75584;SDS011;64162;53.508;10.476;2024-03-23T15:36:20;6.07;;;2.03;;
75584;SDS011;64162;53.508;10.476;2024-03-23T15:38:46;4.47;;;1.30;;
75584;SDS011;64162;53.508;10.476;2024-03-23T15:41:11;3.42;;;1.05;;
75584;SDS011;64162;53.508;10.476;2024-03-23T15:43:37;3.13;;;1.40;;
75584;SDS011;64162;53.508;10.476;2024-03-23T15:46:04;4.57;;;1.08;;
75584;SDS011;64162;53.508;10.476;2024-03-23T15:48:31;3.35;;;1.73;;
75584;SDS011;64162;53.508;10.476;2024-03-23T15:50:58;2.13;;;1.38;;
75584;SDS011;64162;53.508;10.476;2024-03-23T15:53:25;4.53;;;1.63;;
75584;SDS011;64162;53.508;10.476;2024-03-23T15:58:20;3.63;;;1.55;;
75584;SDS011;64162;53.508;10.476;2024-03-23T16:00:53;5.43;;;1.98;;
75584;SDS011;64162;53.508;10.476;2024-03-23T16:03:23;8.30;;;2.90;;
75584;SDS011;64162;53.508;10.476;2024-03-23T16:05:52;7.15;;;2.30;;
75584;SDS011;64162;53.508;10.476;2024-03-23T16:08:18;4.45;;;2.47;;
75584;SDS011;64162;53.508;10.476;2024-03-23T16:10:44;6.53;;;2.42;;
75584;SDS011;64162;53.508;10.476;2024-03-23T16:13:10;5.10;;;2.20;;
75584;SDS011;64162;53.508;10.476;2024-03-23T16:15:35;4.35;;;1.75;;
75584;SDS011;64162;53.508;10.476;2024-03-23T16:18:01;4.45;;;2.10;;
75584;SDS011;64162;53.508;10.476;2024-03-23T16:20:26;8.95;;;1.80;;
75584;SDS011;64162;53.508;10.476;2024-03-23T16:22:52;3.15;;;1.30;;